Time;durP1;ratioP1;P1;durP2;ratioP2;P2;SDS_P1;SDS_P2;PMS_P1;PMS_P2;Temp;Humidity;BMP_temperature;BMP_pressure;BME280_temperature;BME280_humidity;BME280_pressure;Samples;Min_cycle;Max_cycle;Signal;HPM_P1;HPM_P2
2022/10/27 00:01:06;;;;;;;;;;;13.50;65.80;;;9.16;100.00;96311.59;4990775;28;20396;-58
2022/10/27 00:03:31;;;;;;;;;;;13.50;65.90;;;9.16;100.00;96305.47;4974578;28;20249;-56
2022/10/27 00:06:05;;;;;;;;;;;13.50;66.00;;;9.12;100.00;96309.63;4991292;28;19921;-56
2022/10/27 00:08:37;;;;;;;;;;;13.50;66.00;;;9.15;100.00;96307.31;4973909;28;19916;-55
2022/10/27 00:11:06;;;;;;;;;;;13.50;66.00;;;9.14;100.00;96304.88;4990782;28;19990;-56
2022/10/27 00:13:38;;;;;;;;;;;13.50;66.00;;;9.12;100.00;96305.13;4954206;28;19963;-55
2022/10/27 00:16:16;;;;;;;;;;;13.40;66.10;;;9.12;100.00;96307.81;4987929;28;19909;-53
2022/10/27 00:18:44;;;;;;;;;;;13.40;66.10;;;9.12;100.00;96305.13;4973748;28;20040;-56
2022/10/27 00:21:14;;;;;;;;;;;13.40;66.10;;;9.16;100.00;96310.78;4990716;28;20372;-55
2022/10/27 00:23:50;;;;;;;;;;;13.40;66.20;;;9.18;100.00;96311.34;4974661;28;19925;-55
2022/10/27 00:26:19;;;;;;;;;;;13.50;66.40;;;9.22;100.00;96315.94;4973226;28;19909;-54
2022/10/27 00:28:45;;;;;;;;;;;13.40;66.40;;;9.17;100.00;96310.53;4958269;28;19920;-53
2022/10/27 00:31:15;;;;;;;;;;;13.50;66.50;;;9.17;100.00;96315.03;4973008;28;20284;-55
2022/10/27 00:33:42;;;;;;;;;;;13.50;66.40;;;9.19;100.00;96313.78;4974443;28;20388;-57
2022/10/27 00:36:24;;;;;;;;;;;13.50;66.50;;;9.21;100.00;96311.69;4958126;28;19909;-57
2022/10/27 00:38:58;;;;;;;;;;;13.50;66.40;;;9.19;100.00;96313.78;4958262;28;19910;-58
2022/10/27 00:41:36;;;;;;;;;;;13.50;66.50;;;9.18;100.00;96316.66;4990573;28;19909;-58
2022/10/27 00:44:28;;;;;;;;;;;13.50;66.40;;;9.16;100.00;96308.13;4966853;28;19991;-58
2022/10/27 00:46:55;;;;;;;;;;;13.50;66.50;;;9.16;100.00;96316.09;4974243;28;20369;-58
2022/10/27 00:49:32;;;;;;;;;;;13.40;66.50;;;9.16;100.00;96318.75;4984598;28;19909;-58
2022/10/27 00:52:37;;;;;;;;;;;13.40;66.50;;;9.15;100.00;96327.75;4990542;28;19920;-57
2022/10/27 00:55:34;;;;;;;;;;;13.40;66.60;;;9.14;100.00;96326.16;4961297;28;20277;-57
2022/10/27 00:58:16;;;;;;;;;;;13.40;66.60;;;9.13;100.00;96325.34;4963680;28;19932;-58
2022/10/27 01:00:42;;;;;;;;;;;13.40;66.70;;;9.14;100.00;96326.16;4973095;28;19909;-58
2022/10/27 01:03:17;;;;;;;;;;;13.40;66.70;;;9.14;100.00;96324.28;4990246;28;19914;-57
2022/10/27 01:05:45;;;;;;;;;;;13.40;67.60;;;9.15;100.00;96317.13;4989695;28;20368;-58
2022/10/27 01:08:12;;;;;;;;;;;13.40;66.80;;;9.16;100.00;96326.72;4956816;28;19913;-58
2022/10/27 01:10:38;;;;;;;;;;;13.40;66.90;;;9.17;100.00;96323.81;4973607;28;19932;-58
2022/10/27 01:13:11;;;;;;;;;;;13.40;67.00;;;9.16;100.00;96318.75;4990220;28;19917;-58
2022/10/27 01:15:54;;;;;;;;;;;13.40;67.00;;;9.11;100.00;96316.78;4989547;28;20285;-58
2022/10/27 01:18:34;;;;;;;;;;;13.40;66.90;;;9.15;100.00;96328.59;4991349;28;19955;-58
2022/10/27 01:21:24;;;;;;;;;;;13.40;67.00;;;9.17;100.00;96328.34;4971551;28;19916;-57
2022/10/27 01:24:23;;;;;;;;;;;13.40;67.10;;;9.18;100.00;96333.44;4990755;28;19917;-58
2022/10/27 01:26:52;;;;;;;;;;;13.40;67.20;;;9.20;100.00;96333.19;4989271;28;20030;-57
2022/10/27 01:29:58;;;;;;;;;;;13.40;67.20;;;9.23;100.00;96330.03;4989581;28;20196;-58
2022/10/27 01:32:32;;;;;;;;;;;13.40;67.30;;;9.21;100.00;96324.97;4972288;28;20012;-58
2022/10/27 01:36:15;;;;;;;;;;;13.40;67.30;;;9.09;100.00;96323.38;4989505;28;19963;-56
2022/10/27 01:39:07;;;;;;;;;;;13.40;67.30;;;9.10;100.00;96314.38;4972259;28;20342;-58
2022/10/27 01:41:57;;;;;;;;;;;13.40;67.30;;;9.14;100.00;96312.88;4988977;28;19910;-58
2022/10/27 01:44:34;;;;;;;;;;;13.30;67.40;;;9.18;100.00;96319.31;4975393;28;19909;-58
2022/10/27 01:47:03;;;;;;;;;;;13.30;67.40;;;9.19;100.00;96315.63;4989496;28;19948;-58
2022/10/27 01:49:41;;;;;;;;;;;13.40;67.60;;;9.17;100.00;96321.16;4984883;28;19921;-58
2022/10/27 01:52:51;;;;;;;;;;;13.40;67.50;;;9.19;100.00;96331.56;4976511;28;19917;-58
2022/10/27 01:55:27;;;;;;;;;;;13.40;67.50;;;9.17;100.00;96342.44;4988954;28;20401;-58
2022/10/27 01:58:33;;;;;;;;;;;13.40;67.60;;;9.14;100.00;96347.41;4990366;28;19995;-58
2022/10/27 02:01:29;;;;;;;;;;;13.40;67.50;;;9.12;100.00;96347.66;4989490;28;19917;-58
2022/10/27 02:04:46;;;;;;;;;;;13.40;67.60;;;9.08;100.00;96337.72;4973018;28;20020;-58
2022/10/27 02:08:12;;;;;;;;;;;13.40;67.60;;;9.04;100.00;96335.53;4957729;28;19956;-57
2022/10/27 02:11:03;;;;;;;;;;;13.30;67.40;;;9.19;100.00;96329.72;4974420;28;20000;-58
2022/10/27 02:13:33;;;;;;;;;;;13.30;67.70;;;9.26;100.00;96335.69;4973153;28;19924;-58
2022/10/27 02:16:19;;;;;;;;;;;13.40;68.00;;;9.30;100.00;96336.03;4989327;28;19918;-57
2022/10/27 02:18:57;;;;;;;;;;;13.40;68.00;;;9.27;100.00;96339.97;4991574;28;20482;-58
2022/10/27 02:21:28;;;;;;;;;;;13.40;68.00;;;9.22;100.00;96331.91;4994009;28;19945;-58
2022/10/27 02:23:54;;;;;;;;;;;13.40;67.80;;;9.20;100.00;96333.19;4976107;28;20352;-57
2022/10/27 02:26:40;;;;;;;;;;;13.40;67.80;;;9.14;100.00;96326.97;4990611;28;20015;-58
2022/10/27 02:29:37;;;;;;;;;;;13.40;67.60;;;9.02;100.00;96324.34;4976358;28;19909;-57
2022/10/27 02:32:12;;;;;;;;;;;13.40;67.50;;;8.96;100.00;96330.63;4992183;28;19928;-58
2022/10/27 02:34:42;;;;;;;;;;;13.40;67.60;;;8.97;100.00;96337.53;4975833;28;19914;-58
2022/10/27 02:37:25;;;;;;;;;;;13.30;67.60;;;8.98;100.00;96341.00;4988921;28;19910;-58
2022/10/27 02:39:50;;;;;;;;;;;13.30;67.60;;;8.98;100.00;96338.34;4992431;28;20007;-58
2022/10/27 02:42:22;;;;;;;;;;;13.30;67.70;;;8.92;100.00;96339.28;4986307;28;20021;-57
2022/10/27 02:44:58;;;;;;;;;;;13.20;67.70;;;8.96;100.00;96333.28;4989909;28;19967;-58
2022/10/27 02:47:32;;;;;;;;;;;13.30;67.80;;;8.96;100.00;96343.06;4947643;28;19909;-57
2022/10/27 02:49:58;;;;;;;;;;;13.30;67.90;;;8.87;100.00;96341.81;4983745;28;19918;-58
2022/10/27 02:52:27;;;;;;;;;;;13.20;67.80;;;8.79;100.00;96335.84;4992308;28;20334;-57
2022/10/27 02:54:53;;;;;;;;;;;13.20;67.70;;;8.75;100.00;96337.34;4990658;28;19913;-58
2022/10/27 02:57:24;;;;;;;;;;;13.20;67.70;;;8.74;100.00;96335.75;4993075;28;19913;-55
2022/10/27 02:59:50;;;;;;;;;;;13.10;67.70;;;8.76;100.00;96332.84;4993365;28;19909;-56
2022/10/27 03:02:25;;;;;;;;;;;13.10;67.80;;;8.81;100.00;96335.63;4988689;28;20390;-58
2022/10/27 03:07:21;;;;;;;;;;;13.10;68.10;;;8.89;100.00;96337.09;5001175;28;19925;-52
2022/10/27 03:09:53;;;;;;;;;;;13.20;68.30;;;9.03;100.00;96335.78;4998353;28;19913;-50
2022/10/27 03:12:19;;;;;;;;;;;13.20;68.40;;;9.06;100.00;96345.13;5012488;28;19912;-51
2022/10/27 03:14:45;;;;;;;;;;;13.30;68.50;;;9.04;100.00;96343.50;4992820;28;20741;-50
2022/10/27 03:17:16;;;;;;;;;;;13.30;68.40;;;9.02;100.00;96345.63;5010810;28;19913;-50
2022/10/27 03:19:45;;;;;;;;;;;13.30;68.30;;;9.06;100.00;96340.63;5009808;28;19959;-50
2022/10/27 03:22:14;;;;;;;;;;;13.30;68.30;;;9.09;100.00;96332.19;4996639;28;20011;-54
2022/10/27 03:24:39;;;;;;;;;;;13.40;68.40;;;9.12;100.00;96349.50;4993664;28;19951;-50
2022/10/27 03:27:05;;;;;;;;;;;13.40;68.40;;;9.14;100.00;96345.56;4994071;28;19982;-53
2022/10/27 03:29:31;;;;;;;;;;;13.40;68.40;;;9.16;100.00;96348.81;4994857;28;19908;-50
2022/10/27 03:31:57;;;;;;;;;;;13.50;68.50;;;9.17;100.00;96353.06;5006548;28;19913;-56
2022/10/27 03:34:22;;;;;;;;;;;13.50;68.40;;;9.15;100.00;96354.34;4991707;28;19909;-51
2022/10/27 03:36:51;;;;;;;;;;;13.50;68.40;;;9.22;100.00;96361.16;4993830;28;21287;-50
2022/10/27 03:39:17;;;;;;;;;;;13.50;68.40;;;9.21;100.00;96362.19;5011916;28;19920;-50
2022/10/27 03:41:45;;;;;;;;;;;13.50;68.30;;;9.24;100.00;96367.03;4994185;28;20291;-50
2022/10/27 03:44:17;;;;;;;;;;;13.50;68.30;;;9.24;100.00;96366.22;5009487;28;19920;-52
2022/10/27 03:46:45;;;;;;;;;;;13.50;68.30;;;9.25;100.00;96362.53;5011383;28;19952;-50
2022/10/27 03:49:14;;;;;;;;;;;13.50;68.30;;;9.26;100.00;96364.13;5009352;28;19935;-51
2022/10/27 03:51:52;;;;;;;;;;;13.50;68.40;;;9.23;100.00;96359.28;4974570;28;19913;-54
2022/10/27 03:54:24;;;;;;;;;;;13.60;68.40;;;9.20;100.00;96357.09;4990893;28;19909;-50
2022/10/27 03:56:52;;;;;;;;;;;13.60;68.40;;;9.16;100.00;96358.63;4999534;28;19916;-51
2022/10/27 03:59:21;;;;;;;;;;;13.50;68.20;;;9.14;100.00;96355.38;4990968;28;20003;-51
2022/10/27 04:01:50;;;;;;;;;;;13.50;68.30;;;9.14;100.00;96369.47;4999693;28;19909;-50
2022/10/27 04:04:22;;;;;;;;;;;13.50;68.40;;;9.12;100.00;96355.63;4993979;28;19917;-51
2022/10/27 04:06:47;;;;;;;;;;;13.50;68.40;;;9.13;100.00;96361.75;5009410;28;19925;-52
2022/10/27 04:09:25;;;;;;;;;;;13.50;69.20;;;9.11;100.00;96361.97;5011510;28;20318;-50
2022/10/27 04:11:54;;;;;;;;;;;13.50;68.40;;;9.14;100.00;96360.69;4993876;28;19913;-49
2022/10/27 04:14:21;;;;;;;;;;;13.50;68.50;;;9.15;100.00;96364.97;5008610;28;20435;-50
2022/10/27 04:16:52;;;;;;;;;;;13.50;68.50;;;9.15;100.00;96362.31;5011126;28;20004;-48
2022/10/27 04:19:28;;;;;;;;;;;13.50;68.60;;;9.13;100.00;96364.41;5010454;28;19916;-50
2022/10/27 04:21:57;;;;;;;;;;;13.50;68.50;;;9.11;100.00;96366.50;4993692;28;19992;-48
2022/10/27 04:24:22;;;;;;;;;;;13.50;68.40;;;9.08;100.00;96364.31;4981192;28;20295;-50
2022/10/27 04:26:48;;;;;;;;;;;13.50;68.40;;;9.06;100.00;96371.69;5004274;28;19909;-52
2022/10/27 04:29:17;;;;;;;;;;;13.50;68.40;;;9.01;100.00;96359.94;4991881;28;19909;-53
2022/10/27 04:31:42;;;;;;;;;;;13.60;68.40;;;9.00;100.00;96355.66;4981861;28;19913;-53
2022/10/27 04:34:11;;;;;;;;;;;13.50;68.30;;;8.98;100.00;96365.72;5011114;28;19909;-54
2022/10/27 04:36:37;;;;;;;;;;;13.50;68.30;;;9.01;100.00;96373.22;5009039;28;20043;-54
2022/10/27 04:39:02;;;;;;;;;;;13.50;68.40;;;9.02;100.00;96366.03;4993564;28;20362;-52
2022/10/27 04:41:30;;;;;;;;;;;13.40;68.30;;;9.01;100.00;96375.88;4993087;28;20387;-55
2022/10/27 04:43:55;;;;;;;;;;;13.40;68.40;;;8.99;100.00;96377.97;4984805;28;19916;-57
2022/10/27 04:46:21;;;;;;;;;;;13.40;68.40;;;9.00;100.00;96371.63;5010326;28;19912;-57
2022/10/27 04:48:53;;;;;;;;;;;13.40;68.40;;;9.01;100.00;96375.88;5009931;28;19908;-56
2022/10/27 04:51:19;;;;;;;;;;;13.40;68.60;;;9.03;100.00;96373.81;4991991;28;19921;-53
2022/10/27 04:53:45;;;;;;;;;;;13.40;68.60;;;9.07;100.00;96370.69;4991317;28;19917;-54
2022/10/27 04:56:11;;;;;;;;;;;13.40;68.60;;;9.07;100.00;96371.47;5002287;28;19962;-53
2022/10/27 04:58:36;;;;;;;;;;;13.50;69.50;;;9.08;100.00;96375.75;5010937;28;19939;-54
2022/10/27 05:01:11;;;;;;;;;;;13.50;68.80;;;9.03;100.00;96370.34;4991826;28;20379;-53
2022/10/27 05:03:37;;;;;;;;;;;13.40;68.70;;;9.02;100.00;96371.38;5010736;28;19913;-56
2022/10/27 05:06:04;;;;;;;;;;;13.40;68.60;;;9.01;100.00;96380.38;5007403;28;19921;-51
2022/10/27 05:08:30;;;;;;;;;;;13.50;68.70;;;9.00;100.00;96370.81;4988549;28;20035;-56
2022/10/27 05:10:56;;;;;;;;;;;13.40;68.60;;;9.00;100.00;96368.94;4987956;28;19913;-51
2022/10/27 05:13:23;;;;;;;;;;;13.40;68.60;;;9.01;100.00;96367.09;5000909;28;19916;-50
2022/10/27 05:15:48;;;;;;;;;;;13.40;68.70;;;9.00;100.00;96376.13;4992211;28;20284;-54
2022/10/27 05:18:14;;;;;;;;;;;13.40;68.70;;;8.97;100.00;96380.06;4998111;28;19909;-54
2022/10/27 05:20:49;;;;;;;;;;;13.30;68.60;;;8.95;100.00;96383.97;5003203;28;19917;-53
2022/10/27 05:23:15;;;;;;;;;;;13.30;68.70;;;8.91;100.00;96381.00;4996207;28;19917;-53
2022/10/27 05:25:41;;;;;;;;;;;13.40;68.80;;;8.87;100.00;96377.19;4996536;28;20283;-55
2022/10/27 05:28:10;;;;;;;;;;;13.30;68.70;;;8.87;100.00;96379.00;5000909;28;19921;-53
2022/10/27 05:30:36;;;;;;;;;;;13.30;68.70;;;8.83;100.00;96372.56;5008695;28;19978;-56
2022/10/27 05:33:08;;;;;;;;;;;13.30;68.60;;;8.77;100.00;96377.78;4989771;28;19909;-54
2022/10/27 05:35:40;;;;;;;;;;;13.20;68.60;;;8.73;100.00;96373.16;4987434;28;20261;-57
2022/10/27 05:38:09;;;;;;;;;;;13.20;68.60;;;8.68;100.00;96370.38;5001141;28;19913;-52
2022/10/27 05:40:37;;;;;;;;;;;13.20;68.70;;;8.67;100.00;96372.25;4996326;28;19909;-55
2022/10/27 05:43:10;;;;;;;;;;;13.20;68.70;;;8.67;100.00;96374.91;4983197;28;20275;-54
2022/10/27 05:45:37;;;;;;;;;;;13.10;68.80;;;8.68;100.00;96376.53;4994031;28;19913;-55
2022/10/27 05:48:09;;;;;;;;;;;13.10;68.80;;;8.69;100.00;96383.44;5003546;28;19913;-54
2022/10/27 05:50:41;;;;;;;;;;;13.10;68.90;;;8.69;100.00;96385.31;5008096;28;19913;-52
2022/10/27 05:53:07;;;;;;;;;;;13.10;68.90;;;8.69;100.00;96394.06;5010163;28;19913;-54
2022/10/27 05:55:34;;;;;;;;;;;13.10;68.90;;;8.68;100.00;96388.97;4977452;28;19937;-54
2022/10/27 05:58:03;;;;;;;;;;;13.10;68.90;;;8.70;100.00;96394.88;5008726;28;19945;-51
2022/10/27 06:00:35;;;;;;;;;;;13.10;68.90;;;8.69;100.00;96394.06;5012433;28;19916;-50
2022/10/27 06:03:04;;;;;;;;;;;13.10;68.80;;;8.65;100.00;96398.25;4996206;28;20371;-52
2022/10/27 06:05:33;;;;;;;;;;;13.10;68.70;;;8.62;100.00;96397.88;4995234;28;19917;-55
2022/10/27 06:08:02;;;;;;;;;;;13.10;68.70;;;8.58;100.00;96394.88;4987398;28;19932;-55
2022/10/27 06:10:28;;;;;;;;;;;13.10;68.70;;;8.55;100.00;96392.69;4993873;28;19956;-51
2022/10/27 06:13:20;;;;;;;;;;;13.00;68.60;;;8.51;100.00;96394.19;4995624;28;20361;-53
2022/10/27 06:15:46;;;;;;;;;;;13.00;68.60;;;8.49;100.00;96398.91;4993457;28;20367;-56
2022/10/27 06:18:12;;;;;;;;;;;13.00;68.60;;;8.46;100.00;96404.69;5013674;28;19983;-51
2022/10/27 06:20:47;;;;;;;;;;;13.00;68.60;;;8.44;100.00;96402.28;4990646;28;19910;-51
2022/10/27 06:23:15;;;;;;;;;;;12.90;68.60;;;8.43;100.00;96410.47;4976644;28;19920;-52
2022/10/27 06:25:44;;;;;;;;;;;13.00;68.80;;;8.44;100.00;96409.44;5001633;28;19957;-52
2022/10/27 06:28:12;;;;;;;;;;;12.90;68.70;;;8.44;100.00;96423.53;4995968;28;20001;-54
2022/10/27 06:30:38;;;;;;;;;;;12.90;68.70;;;8.45;100.00;96425.13;5011381;28;19913;-56
2022/10/27 06:33:27;;;;;;;;;;;12.90;68.70;;;8.43;100.00;96427.22;5013177;28;19982;-56
2022/10/27 06:35:55;;;;;;;;;;;12.90;68.60;;;8.39;100.00;96422.59;4995345;28;19909;-56
2022/10/27 06:38:24;;;;;;;;;;;12.90;68.70;;;8.38;100.00;96420.94;5012697;28;20431;-54
2022/10/27 06:40:54;;;;;;;;;;;12.90;68.70;;;8.35;100.00;96427.53;5013595;28;19909;-56
2022/10/27 06:43:20;;;;;;;;;;;12.90;68.60;;;8.36;100.00;96423.81;5011185;28;19916;-55
2022/10/27 06:45:48;;;;;;;;;;;12.90;68.70;;;8.35;100.00;96427.53;4995007;28;20003;-56
2022/10/27 06:48:16;;;;;;;;;;;12.90;68.70;;;8.33;100.00;96442.84;5011897;28;20384;-55
2022/10/27 06:50:54;;;;;;;;;;;12.90;68.60;;;8.30;100.00;96432.69;5012084;28;19970;-54
2022/10/27 06:53:22;;;;;;;;;;;12.90;68.60;;;8.28;100.00;96443.56;4995335;28;19951;-55
2022/10/27 06:55:48;;;;;;;;;;;12.90;69.40;;;8.33;100.00;96445.50;4998826;28;19924;-52
2022/10/27 06:58:14;;;;;;;;;;;12.80;68.60;;;8.31;100.00;96440.44;5003079;28;19909;-50
2022/10/27 07:00:40;;;;;;;;;;;12.90;68.60;;;8.30;100.00;96443.31;4990878;28;20075;-56
2022/10/27 07:03:08;;;;;;;;;;;12.90;68.60;;;8.31;100.00;96443.09;5002214;28;20364;-52
2022/10/27 07:05:34;;;;;;;;;;;12.90;68.60;;;8.33;100.00;96443.66;4996123;28;19922;-53
2022/10/27 07:08:00;;;;;;;;;;;12.90;68.60;;;8.35;100.00;96440.78;4978591;28;19925;-54
2022/10/27 07:10:26;;;;;;;;;;;12.90;68.60;;;8.37;100.00;96446.69;5007084;28;20439;-52
2022/10/27 07:12:56;;;;;;;;;;;12.90;68.70;;;8.43;100.00;96448.47;4998108;28;19910;-54
2022/10/27 07:15:25;;;;;;;;;;;13.00;68.70;;;8.58;100.00;96448.78;5007025;28;20274;-50
2022/10/27 07:18:02;;;;;;;;;;;13.20;68.70;;;8.90;100.00;96453.78;4993351;28;19956;-51
2022/10/27 07:20:32;;;;;;;;;;;13.50;68.80;;;9.20;100.00;96466.91;5004712;28;19999;-51
2022/10/27 07:22:58;;;;;;;;;;;13.80;68.70;;;9.53;100.00;96462.78;4995532;28;19944;-50
2022/10/27 07:25:25;;;;;;;;;;;14.10;68.60;;;9.79;100.00;96468.59;4994872;28;20017;-52
2022/10/27 07:27:54;;;;;;;;;;;14.40;68.50;;;10.06;100.00;96471.47;5009699;28;20008;-52
2022/10/27 07:30:24;;;;;;;;;;;14.70;68.50;;;10.20;100.00;96470.13;5005584;28;19914;-54
2022/10/27 07:32:49;;;;;;;;;;;14.90;68.40;;;10.34;100.00;96471.47;5005400;28;20294;-50
2022/10/27 07:35:16;;;;;;;;;;;15.10;68.30;;;10.39;100.00;96463.56;4994796;28;19925;-52
2022/10/27 07:37:46;;;;;;;;;;;15.20;68.10;;;10.40;100.00;96467.84;4997757;28;19913;-49
2022/10/27 07:40:16;;;;;;;;;;;15.20;67.90;;;10.45;100.00;96461.78;5007457;28;20303;-52
2022/10/27 07:43:01;;;;;;;;;;;15.30;67.70;;;10.47;100.00;96461.56;5004746;28;20253;-51
2022/10/27 07:45:27;;;;;;;;;;;15.40;67.60;;;10.56;100.00;96465.41;5007686;28;19913;-53
2022/10/27 07:47:56;;;;;;;;;;;15.50;67.40;;;10.69;100.00;96461.63;4997824;28;19955;-48
2022/10/27 07:50:28;;;;;;;;;;;15.70;67.30;;;10.82;100.00;96463.97;5006569;28;19919;-51
2022/10/27 07:52:57;;;;;;;;;;;15.90;67.20;;;11.14;100.00;96466.78;4986444;28;19916;-51
2022/10/27 07:55:26;;;;;;;;;;;16.30;67.10;;;11.52;100.00;96473.94;5009661;28;19909;-50
2022/10/27 07:58:06;;;;;;;;;;;16.80;67.00;;;11.95;100.00;96480.34;4990882;28;19964;-50
2022/10/27 08:00:40;;;;;;;;;;;17.30;66.80;;;12.35;100.00;96483.69;4986862;28;20004;-53
2022/10/27 08:03:25;;;;;;;;;;;17.70;66.50;;;12.63;100.00;96475.34;5011489;28;19917;-51
2022/10/27 08:06:19;;;;;;;;;;;18.20;66.10;;;12.84;100.00;96487.00;5010341;28;20002;-49
2022/10/27 08:08:45;;;;;;;;;;;18.70;65.80;;;13.10;100.00;96484.47;4992341;28;19909;-48
2022/10/27 08:11:10;;;;;;;;;;;19.20;65.30;;;13.40;100.00;96479.34;5011220;28;19920;-50
2022/10/27 08:13:40;;;;;;;;;;;19.50;64.90;;;13.62;100.00;96483.72;5010274;28;19920;-49
2022/10/27 08:16:12;;;;;;;;;;;19.90;64.60;;;13.83;98.13;96485.41;5009809;28;19920;-54
2022/10/27 08:18:37;;;;;;;;;;;20.30;64.30;;;13.99;94.88;96480.91;5010362;28;20306;-53
2022/10/27 08:21:09;;;;;;;;;;;20.70;63.90;;;14.36;95.09;96482.59;4986198;28;19925;-52
2022/10/27 08:23:39;;;;;;;;;;;21.10;63.70;;;14.67;90.25;96494.16;4990433;28;20008;-54
2022/10/27 08:26:05;;;;;;;;;;;21.40;63.50;;;14.94;87.49;96498.44;4992173;28;19968;-53
2022/10/27 08:28:30;;;;;;;;;;;21.80;63.30;;;15.21;88.26;96488.19;4990182;28;19909;-51
2022/10/27 08:30:59;;;;;;;;;;;22.20;63.10;;;15.61;84.25;96493.72;4990252;28;20413;-53
2022/10/27 08:33:28;;;;;;;;;;;22.60;62.90;;;15.94;82.60;96495.75;5006095;28;19978;-53
2022/10/27 08:35:53;;;;;;;;;;;23.00;63.20;;;16.23;77.75;96488.88;5009632;28;19909;-51
2022/10/27 08:38:20;;;;;;;;;;;23.30;61.80;;;16.43;73.89;96492.25;5008956;28;20417;-55
2022/10/27 08:41:29;;;;;;;;;;;23.70;62.10;;;16.76;73.25;96489.88;5009706;28;19969;-51
2022/10/27 08:44:29;;;;;;;;;;;24.10;60.70;;;17.21;69.88;96489.75;5009119;28;19909;-51
2022/10/27 08:47:23;;;;;;;;;;;24.50;60.00;;;17.45;68.99;96495.16;5011166;28;19913;-52
2022/10/27 08:50:22;;;;;;;;;;;24.80;59.30;;;17.79;67.09;96498.53;5008491;28;20364;-51
2022/10/27 08:52:54;;;;;;;;;;;25.00;58.90;;;18.06;65.74;96497.16;5008512;28;19923;-52
2022/10/27 08:55:52;;;;;;;;;;;25.30;58.40;;;18.39;64.84;96486.44;5009837;28;20340;-50
2022/10/27 08:58:45;;;;;;;;;;;25.50;58.00;;;18.70;62.97;96494.88;5004696;28;20314;-52
2022/10/27 09:01:29;;;;;;;;;;;25.80;57.50;;;19.01;61.68;96483.59;4975843;28;19917;-53
2022/10/27 09:04:36;;;;;;;;;;;26.10;57.30;;;19.39;60.69;96492.34;5010698;28;20392;-54
2022/10/27 09:07:47;;;;;;;;;;;26.50;56.80;;;19.65;58.88;96487.31;5018197;22;19933;-57
2022/10/27 09:10:56;;;;;;;;;;;26.70;56.40;;;19.78;59.15;96493.81;4974217;28;19971;-57
2022/10/27 09:13:37;;;;;;;;;;;27.10;56.00;;;20.00;57.73;96493.91;4988438;28;19936;-57
2022/10/27 09:16:12;;;;;;;;;;;27.40;55.50;;;20.19;58.50;96495.66;5012097;28;19986;-56
2022/10/27 09:18:57;;;;;;;;;;;27.60;55.00;;;20.19;58.57;96496.47;5003583;28;19909;-55
2022/10/27 09:21:31;;;;;;;;;;;27.80;54.60;;;20.35;58.16;96502.34;5001373;28;19936;-54
2022/10/27 09:24:15;;;;;;;;;;;27.90;54.20;;;20.36;56.17;96495.81;5006655;28;20272;-56
2022/10/27 09:26:46;;;;;;;;;;;28.00;53.90;;;20.47;58.04;96499.09;5001441;28;19909;-56
2022/10/27 09:29:35;;;;;;;;;;;28.10;53.60;;;20.54;58.77;96491.38;5001672;28;19915;-56
2022/10/27 09:32:18;;;;;;;;;;;28.20;53.30;;;20.94;56.00;96492.31;4998566;28;19920;-53
2022/10/27 09:35:08;;;;;;;;;;;28.40;53.20;;;21.03;55.43;96498.59;4997501;28;19996;-57
2022/10/27 09:37:40;;;;;;;;;;;28.60;52.90;;;21.10;53.94;96495.44;4997866;28;19920;-56
2022/10/27 09:40:24;;;;;;;;;;;28.70;52.50;;;21.31;54.45;96493.03;5005294;28;20022;-57
2022/10/27 09:42:54;;;;;;;;;;;29.00;52.30;;;21.44;53.28;96492.16;5020073;28;19913;-55
2022/10/27 09:45:26;;;;;;;;;;;29.20;52.10;;;21.45;53.58;96487.53;5009972;28;19935;-57
2022/10/27 09:48:21;;;;;;;;;;;29.30;51.80;;;21.77;53.63;96496.41;5026293;28;19909;-58
2022/10/27 09:51:21;;;;;;;;;;;29.60;51.50;;;21.81;51.92;96492.78;5010657;28;19970;-52
2022/10/27 09:53:51;;;;;;;;;;;29.80;51.20;;;21.75;52.92;96498.63;4985424;28;19952;-55
2022/10/27 09:56:29;;;;;;;;;;;30.00;50.90;;;21.81;51.59;96498.19;4998042;28;20294;-54
2022/10/27 09:59:05;;;;;;;;;;;30.10;50.70;;;21.61;51.06;96496.81;4996611;28;19912;-57
2022/10/27 10:01:42;;;;;;;;;;;30.10;50.30;;;21.83;52.79;96495.16;5001025;28;20004;-56
2022/10/27 10:04:20;;;;;;;;;;;30.20;50.10;;;21.96;52.19;96494.22;5025473;28;20879;-56
2022/10/27 10:06:59;;;;;;;;;;;30.40;50.00;;;22.25;50.84;96498.28;5016070;28;19966;-57
2022/10/27 10:09:38;;;;;;;;;;;30.50;49.80;;;22.24;50.36;96500.22;5016513;28;20368;-58
2022/10/27 10:12:25;;;;;;;;;;;30.60;49.60;;;22.49;49.20;96497.84;5012948;28;19917;-58
2022/10/27 10:15:15;;;;;;;;;;;30.70;49.30;;;22.72;49.82;96499.31;4985454;28;20372;-58
2022/10/27 10:17:55;;;;;;;;;;;30.80;49.10;;;22.68;49.82;96500.25;5013572;28;20368;-59
2022/10/27 10:20:41;;;;;;;;;;;31.00;49.00;;;22.60;49.28;96491.78;4990033;28;19909;-55
2022/10/27 10:23:30;;;;;;;;;;;31.10;48.70;;;22.68;48.16;96506.47;5010572;28;19913;-59
2022/10/27 10:26:18;;;;;;;;;;;31.20;48.50;;;22.86;47.79;96496.41;5012160;28;20363;-57
2022/10/27 10:28:51;;;;;;;;;;;31.40;48.20;;;23.01;48.84;96495.16;4995405;28;20256;-58
2022/10/27 10:31:28;;;;;;;;;;;31.50;48.00;;;23.24;48.63;96501.94;5002727;28;19925;-52
2022/10/27 10:34:05;;;;;;;;;;;31.70;47.90;;;23.45;46.33;96498.56;4996313;28;20360;-58
2022/10/27 10:36:40;;;;;;;;;;;31.90;47.70;;;23.04;47.49;96491.78;5012832;28;19915;-58
2022/10/27 10:39:24;;;;;;;;;;;32.00;47.30;;;23.04;48.21;96483.63;5014911;28;20311;-59
2022/10/27 10:42:17;;;;;;;;;;;32.10;47.00;;;23.67;46.95;96481.97;5004019;28;20325;-58
2022/10/27 10:44:44;;;;;;;;;;;32.20;46.90;;;23.95;46.54;96478.84;5005091;28;20007;-58
2022/10/27 10:47:28;;;;;;;;;;;32.40;46.70;;;24.23;44.80;96481.88;5011551;28;19947;-59
2022/10/27 10:50:00;;;;;;;;;;;32.60;46.50;;;24.16;45.08;96476.13;4893996;28;21246;-58
2022/10/27 10:52:37;;;;;;;;;;;32.70;46.90;;;24.26;45.67;96485.84;4994386;28;19916;-55
2022/10/27 10:55:32;;;;;;;;;;;32.80;45.90;;;24.53;44.93;96481.81;5011038;28;20264;-58
2022/10/27 10:57:58;;;;;;;;;;;32.90;45.70;;;24.75;43.77;96472.50;4995608;28;20429;-58
2022/10/27 11:00:25;;;;;;;;;;;33.00;45.40;;;24.75;43.11;96473.31;4992666;28;19917;-59
2022/10/27 11:03:05;;;;;;;;;;;33.10;45.30;;;24.90;44.21;96477.34;5008675;28;19955;-59
2022/10/27 11:05:35;;;;;;;;;;;33.30;45.10;;;24.92;43.82;96478.59;5012192;28;19971;-59
2022/10/27 11:08:05;;;;;;;;;;;33.50;44.90;;;25.03;43.41;96476.25;5002337;28;20264;-59
2022/10/27 11:10:38;;;;;;;;;;;33.60;44.60;;;24.85;44.19;96472.91;4982719;28;19935;-58
2022/10/27 11:13:26;;;;;;;;;;;33.70;44.50;;;24.85;43.88;96472.09;4996330;28;20402;-59
2022/10/27 11:16:00;;;;;;;;;;;33.80;44.10;;;25.10;45.76;96471.06;5012611;28;20341;-59
2022/10/27 11:18:37;;;;;;;;;;;33.80;43.90;;;25.13;43.01;96473.13;5010139;28;19949;-56
2022/10/27 11:21:35;;;;;;;;;;;34.00;43.80;;;24.86;44.02;96462.81;5013042;28;19908;-59
2022/10/27 11:24:39;;;;;;;;;;;34.10;43.60;;;24.75;45.38;96462.41;5030145;28;19915;-59
2022/10/27 11:27:18;;;;;;;;;;;34.10;43.30;;;24.35;44.73;96453.91;5020710;28;20357;-58
2022/10/27 11:30:27;;;;;;;;;;;34.10;43.10;;;24.30;43.62;96454.13;4997062;28;20349;-58
2022/10/27 11:33:38;;;;;;;;;;;34.10;42.90;;;24.56;44.11;96453.94;5002305;28;19955;-57
2022/10/27 11:36:40;;;;;;;;;;;34.10;42.70;;;24.94;42.56;96453.72;5029992;28;19913;-56
2022/10/27 11:39:32;;;;;;;;;;;34.30;42.70;;;25.39;43.83;96450.25;5007072;28;20353;-57
2022/10/27 11:42:30;;;;;;;;;;;34.40;42.60;;;25.55;41.75;96442.19;4986845;28;19909;-59
2022/10/27 11:45:31;;;;;;;;;;;34.60;42.50;;;25.54;42.29;96438.66;4991082;28;20004;-55
2022/10/27 11:48:21;;;;;;;;;;;34.80;42.30;;;25.50;43.05;96437.72;5031649;28;19954;-56
2022/10/27 11:51:07;;;;;;;;;;;34.90;42.00;;;25.69;44.37;96434.44;5013167;28;19986;-59
2022/10/27 11:53:33;;;;;;;;;;;35.00;41.90;;;25.99;41.72;96439.69;5011870;28;19909;-54
2022/10/27 11:56:26;;;;;;;;;;;35.10;41.70;;;26.13;38.98;96434.66;4992731;28;19932;-57
2022/10/27 11:59:03;;;;;;;;;;;35.20;41.50;;;26.21;40.93;96432.94;5011991;28;19916;-56